Time;durP1;ratioP1;P1;durP2;ratioP2;P2;SDS_P1;SDS_P2;PMS_P1;PMS_P2;Temp;Humidity;BMP_temperature;BMP_pressure;BME280_temperature;BME280_humidity;BME280_pressure;Samples;Min_cycle;Max_cycle;Signal;HPM_P1;HPM_P2
2021/11/15 00:01:57;;;;;;;61.53;38.77;;;;;;;9.18;63.57;102934.44;6209111;28;20214;-64
2021/11/15 00:05:18;;;;;;;55.73;37.50;;;;;;;8.99;63.80;102923.47;6214781;28;20189;-64
2021/11/15 00:08:39;;;;;;;62.60;41.40;;;;;;;9.15;63.55;102922.25;6212376;28;20485;-65
2021/11/15 00:12:01;;;;;;;61.17;40.80;;;;;;;8.45;64.83;102915.66;6206974;28;20187;-65
2021/11/15 00:15:23;;;;;;;56.57;39.33;;;;;;;8.57;64.86;102909.97;6211163;28;20692;-65
2021/11/15 00:18:46;;;;;;;61.73;42.83;;;;;;;8.69;65.03;102905.22;6208194;28;20267;-65
2021/11/15 00:22:07;;;;;;;58.70;39.23;;;;;;;8.90;64.58;102902.41;6208094;28;20319;-65
2021/11/15 00:25:28;;;;;;;55.93;38.03;;;;;;;9.30;63.67;102901.00;6212676;28;20194;-65
2021/11/15 00:28:50;;;;;;;56.87;37.90;;;;;;;9.13;63.82;102903.13;6193900;28;20260;-65
2021/11/15 00:32:11;;;;;;;59.57;37.23;;;;;;;8.98;64.20;102897.44;6208819;28;20773;-65
2021/11/15 00:35:33;;;;;;;60.77;41.47;;;;;;;8.73;64.42;102896.66;6216528;28;20206;-65
2021/11/15 00:38:54;;;;;;;60.77;39.30;;;;;;;8.98;64.29;102897.44;6205903;28;20233;-65
2021/11/15 00:42:15;;;;;;;62.90;42.60;;;;;;;8.99;64.33;102888.81;6205933;28;20259;-65
2021/11/15 00:45:38;;;;;;;57.40;38.57;;;;;;;8.93;64.75;102899.00;6212798;28;20229;-66
2021/11/15 00:48:59;;;;;;;57.57;38.67;;;;;;;8.77;65.11;102897.66;6209058;28;20229;-65
2021/11/15 00:52:21;;;;;;;62.37;39.83;;;;;;;8.31;65.54;102897.00;6211790;28;20308;-65
2021/11/15 00:55:42;;;;;;;59.17;39.83;;;;;;;8.64;65.12;102896.38;6214099;28;20325;-65
2021/11/15 00:59:03;;;;;;;58.63;38.50;;;;;;;8.57;65.26;102897.00;6210902;28;20232;-65
2021/11/15 01:02:27;;;;;;;58.83;37.53;;;;;;;8.67;65.15;102901.69;6215398;28;20225;-65
2021/11/15 01:05:48;;;;;;;62.80;40.83;;;;;;;8.98;64.03;102892.25;6212311;28;20206;-65
2021/11/15 01:09:11;;;;;;;59.07;37.83;;;;;;;8.79;64.13;102896.88;6207951;28;20332;-66
2021/11/15 01:12:32;;;;;;;55.83;36.63;;;;;;;8.73;64.57;102888.88;6208101;28;20678;-65
2021/11/15 01:15:54;;;;;;;61.67;40.27;;;;;;;9.02;63.75;102894.09;6212892;28;20250;-65
2021/11/15 01:19:15;;;;;;;62.57;41.63;;;;;;;8.55;64.92;102896.06;6205291;28;20572;-65
2021/11/15 01:22:36;;;;;;;60.50;38.97;;;;;;;8.92;64.73;102887.75;6210949;28;20315;-64
2021/11/15 01:26:00;;;;;;;55.13;37.47;;;;;;;8.97;64.28;102886.16;6215632;28;20293;-65
2021/11/15 01:29:21;;;;;;;56.30;35.93;;;;;;;8.85;64.56;102886.66;6213175;28;20237;-65
2021/11/15 01:32:43;;;;;;;65.27;43.63;;;;;;;9.23;63.48;102884.34;6217682;28;20232;-66
2021/11/15 01:36:03;;;;;;;58.20;36.77;;;;;;;9.22;63.36;102876.50;6209964;28;20206;-65
2021/11/15 01:39:24;;;;;;;59.83;39.47;;;;;;;9.04;63.96;102890.72;6213845;28;20247;-67
2021/11/15 01:42:47;;;;;;;59.93;39.30;;;;;;;8.73;64.29;102890.59;6217727;28;20224;-65
2021/11/15 01:46:08;;;;;;;60.73;41.33;;;;;;;8.78;64.43;102897.72;6201295;28;20329;-63
2021/11/15 01:49:29;;;;;;;60.13;40.97;;;;;;;8.84;64.36;102892.69;6198126;28;20238;-65
2021/11/15 01:52:50;;;;;;;52.90;34.50;;;;;;;9.27;63.11;102896.59;6215101;28;20221;-65
2021/11/15 01:56:12;;;;;;;64.07;39.67;;;;;;;9.35;63.05;102902.03;6215917;28;20186;-63
2021/11/15 01:59:34;;;;;;;66.70;42.83;;;;;;;9.21;63.44;102903.34;6215542;28;20856;-66
2021/11/15 02:02:55;;;;;;;57.63;36.50;;;;;;;9.54;62.40;102900.84;6210083;28;20224;-65
2021/11/15 02:06:16;;;;;;;60.73;38.27;;;;;;;9.44;62.89;102901.41;6216907;28;20209;-65
2021/11/15 02:09:38;;;;;;;60.90;39.77;;;;;;;9.28;63.24;102902.66;6215519;28;20233;-65
2021/11/15 02:12:59;;;;;;;56.63;37.70;;;;;;;9.32;63.56;102903.66;6213815;28;20241;-65
2021/11/15 02:16:21;;;;;;;55.50;38.60;;;;;;;9.22;63.67;102903.38;6215583;28;20193;-65
2021/11/15 02:19:44;;;;;;;62.10;41.70;;;;;;;9.10;63.76;102907.34;6216368;28;20228;-64
2021/11/15 02:23:06;;;;;;;68.10;43.47;;;;;;;8.98;63.93;102911.31;6213505;28;20234;-65
2021/11/15 02:26:28;;;;;;;67.67;41.90;;;;;;;9.11;63.87;102903.88;6213054;28;20198;-64
2021/11/15 02:29:48;;;;;;;62.30;41.13;;;;;;;9.11;64.11;102893.47;6205904;28;20316;-64
2021/11/15 02:33:11;;;;;;;65.33;41.90;;;;;;;9.11;64.00;102903.88;6212161;28;20321;-66
2021/11/15 02:36:32;;;;;;;64.43;45.07;;;;;;;9.12;64.51;102903.94;6216451;28;20537;-65
2021/11/15 02:39:55;;;;;;;64.30;38.77;;;;;;;9.13;63.68;102892.72;6208001;28;20685;-64
2021/11/15 02:43:16;;;;;;;58.90;39.50;;;;;;;9.39;63.37;102895.19;6210353;28;20229;-65
2021/11/15 02:46:37;;;;;;;63.73;41.70;;;;;;;9.26;63.66;102894.81;6210985;28;20275;-66
2021/11/15 02:49:58;;;;;;;58.93;41.03;;;;;;;9.18;63.80;102888.53;6207422;28;20259;-64
2021/11/15 02:53:20;;;;;;;58.13;38.50;;;;;;;9.39;63.46;102890.00;6211648;28;20644;-66
2021/11/15 02:56:42;;;;;;;64.53;43.30;;;;;;;9.33;63.53;102889.81;6211091;28;20273;-66
2021/11/15 03:00:06;;;;;;;61.73;41.40;;;;;;;8.90;64.41;102899.81;6213802;28;20316;-66
2021/11/15 03:03:27;;;;;;;63.70;42.97;;;;;;;8.94;64.71;102885.19;6210595;28;20226;-66
2021/11/15 03:06:48;;;;;;;60.30;39.00;;;;;;;8.92;63.95;102894.63;6211341;28;20471;-65
2021/11/15 03:10:09;;;;;;;57.47;37.57;;;;;;;8.47;65.74;102891.53;6212462;28;20574;-65
2021/11/15 03:13:36;;;;;;;61.57;41.93;;;;;;;8.72;65.27;102892.28;6207662;28;20233;-66
2021/11/15 03:16:57;;;;;;;58.53;38.63;;;;;;;8.78;65.10;102895.13;6211137;28;20197;-65
2021/11/15 03:20:18;;;;;;;65.20;39.73;;;;;;;8.82;64.84;102891.78;6208642;28;20209;-65
2021/11/15 03:23:41;;;;;;;63.97;41.43;;;;;;;8.93;64.64;102893.81;6204852;28;20252;-65
2021/11/15 03:27:01;;;;;;;59.53;40.60;;;;;;;9.07;64.52;102887.31;6210286;28;20200;-66
2021/11/15 03:30:25;;;;;;;62.77;40.03;;;;;;;9.29;63.75;102882.78;6211742;28;20193;-64
2021/11/15 03:33:47;;;;;;;65.17;40.73;;;;;;;9.31;63.93;102881.09;6213351;28;20225;-65
2021/11/15 03:37:08;;;;;;;61.77;39.17;;;;;;;9.10;64.50;102881.34;6209314;28;20237;-63
2021/11/15 03:40:29;;;;;;;60.13;40.63;;;;;;;8.94;65.34;102885.19;6208932;28;20202;-66
2021/11/15 03:43:52;;;;;;;61.80;40.13;;;;;;;8.97;65.04;102880.06;6210621;28;20315;-65
2021/11/15 03:47:14;;;;;;;63.57;41.23;;;;;;;8.85;65.50;102876.25;6207128;28;20832;-64
2021/11/15 03:50:36;;;;;;;62.40;39.77;;;;;;;8.81;65.34;102882.19;6212436;28;20213;-65
2021/11/15 03:53:58;;;;;;;68.50;41.83;;;;;;;8.21;66.97;102871.56;6217078;28;20229;-65
2021/11/15 03:57:19;;;;;;;55.87;38.83;;;;;;;7.81;68.44;102884.06;6214384;28;20232;-65
2021/11/15 04:00:41;;;;;;;57.47;38.53;;;;;;;8.10;67.85;102881.56;6212354;28;20813;-63
2021/11/15 04:04:05;;;;;;;61.40;39.33;;;;;;;8.20;67.62;102881.06;6213199;28;20237;-65
2021/11/15 04:07:31;;;;;;;56.13;36.37;;;;;;;8.19;67.10;102875.84;6213587;28;20666;-65
2021/11/15 04:10:53;;;;;;;57.07;38.10;;;;;;;7.94;67.63;102880.16;6213426;28;20506;-65
2021/11/15 04:14:15;;;;;;;56.73;37.13;;;;;;;8.24;66.94;102884.66;6211837;28;20228;-66
2021/11/15 04:17:36;;;;;;;57.70;38.07;;;;;;;8.08;67.27;102884.16;6217119;28;20236;-65
2021/11/15 04:21:00;;;;;;;60.73;38.57;;;;;;;7.74;68.09;102870.81;6217308;28;20619;-64
2021/11/15 04:24:20;;;;;;;50.63;34.47;;;;;;;8.10;67.20;102878.97;6210061;28;20659;-65
2021/11/15 04:27:41;;;;;;;57.90;35.80;;;;;;;8.06;67.13;102884.91;6213617;28;20620;-65
2021/11/15 04:31:03;;;;;;;55.00;35.60;;;;;;;8.14;66.98;102877.38;6208547;28;20210;-65
2021/11/15 04:34:24;;;;;;;57.73;39.27;;;;;;;8.39;66.17;102879.06;6210623;28;20788;-64
2021/11/15 04:37:48;;;;;;;56.20;37.47;;;;;;;8.46;65.65;102876.75;6210924;28;20222;-64
2021/11/15 04:41:09;;;;;;;56.77;34.23;;;;;;;8.57;65.10;102874.53;6210511;28;20284;-65
2021/11/15 04:44:30;;;;;;;53.70;37.10;;;;;;;8.50;65.24;102882.06;6207447;28;20221;-64
2021/11/15 04:47:51;;;;;;;54.33;36.00;;;;;;;8.08;65.73;102878.03;6208416;28;20217;-65
2021/11/15 04:51:12;;;;;;;55.23;35.17;;;;;;;8.30;65.66;102884.88;6213003;28;20288;-65
2021/11/15 04:54:34;;;;;;;53.93;36.03;;;;;;;8.55;64.92;102872.69;6210408;28;20260;-65
2021/11/15 04:57:56;;;;;;;53.77;35.73;;;;;;;8.45;64.79;102875.03;6207220;28;20225;-65
2021/11/15 05:01:18;;;;;;;52.30;37.33;;;;;;;8.67;64.62;102881.78;6211306;28;20201;-66
2021/11/15 05:04:38;;;;;;;56.20;38.30;;;;;;;8.05;66.41;102875.38;6213256;28;20229;-65
2021/11/15 05:08:00;;;;;;;63.83;40.03;;;;;;;8.12;66.80;102876.44;6209537;28;20781;-65
2021/11/15 05:11:22;;;;;;;55.43;36.00;;;;;;;8.13;67.19;102878.22;6214999;28;20214;-64
2021/11/15 05:14:43;;;;;;;62.47;41.43;;;;;;;7.64;67.48;102870.50;6210987;28;20225;-65
2021/11/15 05:18:04;;;;;;;61.03;40.20;;;;;;;7.63;68.13;102868.72;6213006;28;20536;-64
2021/11/15 05:21:25;;;;;;;59.93;38.00;;;;;;;7.55;67.80;102877.06;6220356;28;20462;-64
2021/11/15 05:24:46;;;;;;;55.13;38.07;;;;;;;7.92;67.04;102873.19;6215732;28;20220;-64
2021/11/15 05:28:08;;;;;;;55.27;39.27;;;;;;;7.89;66.93;102876.56;6212229;28;20232;-65
2021/11/15 05:31:32;;;;;;;61.27;40.97;;;;;;;7.92;66.20;102881.84;6215680;28;20197;-65
2021/11/15 05:34:53;;;;;;;51.30;35.50;;;;;;;7.99;64.75;102873.44;6212115;28;20250;-65
2021/11/15 05:38:14;;;;;;;45.03;33.97;;;;;;;8.27;63.89;102884.75;6199292;28;20324;-64
2021/11/15 05:41:35;;;;;;;46.93;33.30;;;;;;;8.24;63.17;102882.06;6215169;28;20594;-65
2021/11/15 05:44:57;;;;;;;45.03;32.87;;;;;;;8.32;62.80;102883.19;6215018;28;20292;-64
2021/11/15 05:48:19;;;;;;;53.00;36.33;;;;;;;8.28;63.22;102882.22;6213526;28;20903;-64
2021/11/15 05:51:39;;;;;;;45.37;34.10;;;;;;;8.40;62.99;102881.72;6214650;28;20295;-65
2021/11/15 05:55:00;;;;;;;48.93;34.90;;;;;;;8.38;62.70;102885.13;6213759;28;20319;-65
2021/11/15 05:58:21;;;;;;;45.07;31.97;;;;;;;8.51;62.58;102886.41;6210789;28;20229;-65
2021/11/15 06:01:44;;;;;;;46.77;32.43;;;;;;;8.47;62.08;102882.84;6206088;28;20213;-65
2021/11/15 06:05:06;;;;;;;44.93;31.80;;;;;;;8.57;61.70;102884.91;6211967;28;20233;-65
2021/11/15 06:08:27;;;;;;;44.47;33.10;;;;;;;8.73;61.46;102881.09;6205798;28;20452;-65
2021/11/15 06:11:48;;;;;;;44.13;33.80;;;;;;;8.66;61.53;102885.19;6194338;28;20571;-65
2021/11/15 06:15:12;;;;;;;46.30;33.60;;;;;;;8.60;61.76;102881.53;6212034;28;20202;-63
2021/11/15 06:18:34;;;;;;;47.23;32.83;;;;;;;8.74;61.79;102890.63;6209582;28;20260;-65
2021/11/15 06:21:55;;;;;;;43.63;33.90;;;;;;;8.74;61.33;102894.94;6214858;28;20233;-65
2021/11/15 06:25:17;;;;;;;41.70;32.50;;;;;;;8.70;61.06;102890.50;6207125;28;20206;-64
2021/11/15 06:28:39;;;;;;;41.23;31.30;;;;;;;8.69;61.75;102892.22;6211448;28;20221;-64
2021/11/15 06:32:01;;;;;;;40.60;30.43;;;;;;;8.63;61.77;102890.31;6211044;28;20198;-65
2021/11/15 06:35:26;;;;;;;42.97;31.67;;;;;;;8.82;61.61;102899.56;6205875;28;20209;-66
2021/11/15 06:38:47;;;;;;;43.77;33.33;;;;;;;8.73;61.53;102898.41;6212443;28;20229;-65
2021/11/15 06:42:08;;;;;;;48.00;31.80;;;;;;;8.46;62.11;102889.75;6211760;28;20556;-65
2021/11/15 06:45:30;;;;;;;46.77;33.23;;;;;;;8.57;62.10;102891.81;6198747;28;20226;-65
2021/11/15 06:48:51;;;;;;;47.90;33.57;;;;;;;8.72;61.57;102902.69;6210247;28;20225;-65
2021/11/15 06:52:13;;;;;;;41.63;30.33;;;;;;;8.72;61.90;102904.41;6209112;28;20240;-65
2021/11/15 06:55:34;;;;;;;38.83;30.00;;;;;;;8.89;61.36;102902.34;6196486;28;20198;-66
2021/11/15 06:58:55;;;;;;;44.07;30.23;;;;;;;8.95;60.83;102897.34;6210241;28;20219;-65
2021/11/15 07:02:16;;;;;;;46.20;34.30;;;;;;;8.86;61.17;102906.63;6206903;28;20567;-65
2021/11/15 07:05:37;;;;;;;42.93;32.67;;;;;;;8.61;61.12;102907.56;6216292;28;20216;-65
2021/11/15 07:08:59;;;;;;;40.07;29.90;;;;;;;8.81;60.92;102907.31;6200123;28;20823;-64
2021/11/15 07:12:21;;;;;;;39.83;30.27;;;;;;;8.74;61.17;102898.41;6212566;28;20484;-65
2021/11/15 07:15:44;;;;;;;43.37;31.40;;;;;;;8.91;61.02;102900.69;6213249;28;20201;-65
2021/11/15 07:19:05;;;;;;;41.20;31.23;;;;;;;9.02;60.62;102899.31;6209910;28;20213;-65
2021/11/15 07:22:26;;;;;;;40.93;31.13;;;;;;;9.08;60.91;102904.69;6209568;28;20647;-64
2021/11/15 07:25:48;;;;;;;44.77;33.20;;;;;;;9.22;60.11;102907.69;6213637;28;20599;-64
2021/11/15 07:29:09;;;;;;;45.97;30.93;;;;;;;8.94;60.74;102906.00;6209447;28;20288;-65
2021/11/15 07:32:30;;;;;;;43.13;31.70;;;;;;;8.97;60.82;102900.88;6207225;28;20611;-65
2021/11/15 07:35:51;;;;;;;39.60;29.93;;;;;;;8.70;61.44;102906.94;6211848;28;20202;-65
2021/11/15 07:39:12;;;;;;;38.83;30.37;;;;;;;8.87;61.08;102900.56;6210217;28;20229;-65
2021/11/15 07:42:35;;;;;;;38.93;29.67;;;;;;;8.78;61.35;102896.81;6212642;28;20318;-66
2021/11/15 07:45:56;;;;;;;36.50;28.87;;;;;;;8.89;60.74;102897.16;6212626;28;20248;-65
2021/11/15 07:49:17;;;;;;;38.70;30.80;;;;;;;8.93;60.52;102892.09;6203706;28;20221;-65
2021/11/15 07:52:38;;;;;;;39.90;31.90;;;;;;;9.07;60.47;102893.41;6205022;28;20229;-65
2021/11/15 07:55:59;;;;;;;47.00;37.03;;;;;;;9.03;60.28;102886.34;6202796;28;20725;-66
2021/11/15 07:59:21;;;;;;;45.13;31.03;;;;;;;9.16;nan;102885.00;6201742;28;20253;-66
2021/11/15 08:02:42;;;;;;;38.23;30.73;;;;;;;8.99;60.00;102894.00;6199235;28;20441;-65
2021/11/15 08:06:03;;;;;;;44.87;31.57;;;;;;;8.86;60.63;102893.63;6203292;28;20214;-65
2021/11/15 08:09:25;;;;;;;39.57;30.27;;;;;;;8.71;60.95;102882.75;6213542;28;20265;-65
2021/11/15 08:12:49;;;;;;;44.33;31.90;;;;;;;8.68;61.25;102895.63;6206263;28;20249;-66
2021/11/15 08:16:12;;;;;;;36.53;29.87;;;;;;;8.86;60.46;102891.03;6210233;28;20292;-64
2021/11/15 08:19:34;;;;;;;37.10;30.10;;;;;;;8.75;59.95;102894.13;6208774;28;20694;-65
2021/11/15 08:22:59;;;;;;;38.17;31.03;;;;;;;8.38;60.49;102900.69;6208474;28;20229;-65
2021/11/15 08:26:37;;;;;;;43.57;31.43;;;;;;;8.73;60.36;102896.66;6215048;28;20234;-65
2021/11/15 08:29:59;;;;;;;41.73;31.47;;;;;;;8.46;60.13;102900.13;6207020;28;20658;-65
2021/11/15 08:33:22;;;;;;;38.37;31.03;;;;;;;8.46;60.64;102904.47;6207663;28;20233;-65
2021/11/15 08:36:44;;;;;;;35.87;29.40;;;;;;;8.24;60.61;102908.91;6207281;28;20229;-64
2021/11/15 08:40:06;;;;;;;40.70;31.57;;;;;;;7.94;60.36;102911.31;6210402;28;21312;-65
2021/11/15 08:43:27;;;;;;;36.67;28.80;;;;;;;7.76;62.10;102921.03;6199288;28;20253;-65
2021/11/15 08:46:51;;;;;;;38.30;30.43;;;;;;;8.07;61.03;102913.50;6212258;28;20229;-66
2021/11/15 08:50:13;;;;;;;40.50;31.63;;;;;;;8.35;60.25;102919.63;6209226;28;20198;-64
2021/11/15 08:53:34;;;;;;;35.40;28.13;;;;;;;7.41;62.47;102928.41;6192637;28;20260;-64
2021/11/15 08:56:57;;;;;;;37.50;29.20;;;;;;;8.08;60.98;102914.38;6209581;28;20210;-65
2021/11/15 09:00:18;;;;;;;36.80;29.60;;;;;;;8.12;60.72;102915.38;6193809;28;20187;-66
2021/11/15 09:03:41;;;;;;;37.87;30.17;;;;;;;8.36;60.72;102911.03;6200922;28;20315;-65
2021/11/15 09:07:03;;;;;;;35.93;27.53;;;;;;;7.98;61.15;102902.78;6204228;28;20193;-64
2021/11/15 09:10:25;;;;;;;37.27;29.77;;;;;;;7.96;61.83;102901.00;6205527;28;20210;-65
2021/11/15 09:13:47;;;;;;;34.23;29.37;;;;;;;8.38;60.49;102898.09;6202176;28;20234;-64
2021/11/15 09:17:09;;;;;;;32.90;27.20;;;;;;;8.37;60.02;102902.38;6208260;28;20237;-64
2021/11/15 09:20:31;;;;;;;38.40;30.23;;;;;;;8.38;60.53;102903.28;6210470;28;20182;-64
2021/11/15 09:23:54;;;;;;;39.73;31.40;;;;;;;8.21;60.96;102902.72;6201030;28;20327;-64
2021/11/15 09:27:15;;;;;;;36.03;29.70;;;;;;;7.97;60.78;102890.66;6202607;28;20228;-64
2021/11/15 09:30:37;;;;;;;37.17;29.03;;;;;;;7.85;61.65;102900.59;6203032;28;20229;-64
2021/11/15 09:33:57;;;;;;;34.93;26.50;;;;;;;8.31;60.48;102907.38;6209228;28;20762;-63
2021/11/15 09:37:20;;;;;;;36.80;29.07;;;;;;;8.05;60.88;102906.50;6209081;28;20237;-63
2021/11/15 09:40:42;;;;;;;38.13;28.50;;;;;;;8.59;60.08;102911.81;6207781;28;20213;-64
2021/11/15 09:44:04;;;;;;;37.87;28.60;;;;;;;8.65;59.41;102913.75;6194846;28;20233;-64
2021/11/15 09:47:25;;;;;;;35.87;28.13;;;;;;;8.72;59.53;102910.47;6193712;28;20229;-65
2021/11/15 09:50:46;;;;;;;35.30;28.43;;;;;;;8.97;58.66;102913.88;6211141;28;20197;-63
2021/11/15 09:54:08;;;;;;;34.20;27.33;;;;;;;8.77;58.59;102911.53;6206982;28;20518;-63
2021/11/15 09:57:31;;;;;;;33.93;27.77;;;;;;;8.73;58.65;102917.47;6215206;28;20226;-64
2021/11/15 10:00:53;;;;;;;36.63;29.87;;;;;;;8.87;58.70;102915.28;6215497;28;20197;-65
2021/11/15 10:04:17;;;;;;;35.20;28.10;;;;;;;8.73;58.62;102911.38;6209502;28;20229;-63
2021/11/15 10:07:40;;;;;;;37.27;29.73;;;;;;;8.81;59.00;102910.78;6211234;28;20324;-64
2021/11/15 10:11:01;;;;;;;32.90;27.67;;;;;;;9.06;58.31;102911.56;6209809;28;20241;-66
2021/11/15 10:14:27;;;;;;;40.43;30.20;;;;;;;8.85;58.62;102907.44;6201801;28;21208;-64
2021/11/15 10:17:48;;;;;;;41.93;29.23;;;;;;;8.93;58.25;102906.81;6213818;28;20233;-64
2021/11/15 10:21:12;;;;;;;35.33;28.47;;;;;;;8.63;58.16;102899.81;6212377;28;20281;-64
2021/11/15 10:24:36;;;;;;;33.77;28.93;;;;;;;8.75;58.56;102899.31;6207536;28;20264;-64
2021/11/15 10:28:07;;;;;;;34.37;26.80;;;;;;;8.32;59.19;102890.09;6208622;28;20247;-63
2021/11/15 10:31:37;;;;;;;36.37;28.40;;;;;;;8.65;59.37;102898.16;6188612;28;20260;-65
2021/11/15 10:35:00;;;;;;;37.80;27.57;;;;;;;9.00;58.13;102895.78;6210012;28;20221;-66
2021/11/15 10:38:40;;;;;;;36.17;26.20;;;;;;;8.58;58.10;102888.38;6209741;28;20257;-65
2021/11/15 10:42:07;;;;;;;34.83;27.67;;;;;;;8.69;58.44;102881.81;6201848;28;20635;-65
2021/11/15 10:45:30;;;;;;;37.90;29.20;;;;;;;8.74;58.47;102880.25;6205092;28;20232;-67
2021/11/15 10:48:56;;;;;;;34.90;27.47;;;;;;;8.80;58.12;102877.84;6199934;28;20544;-65
2021/11/15 10:52:19;;;;;;;31.90;27.63;;;;;;;8.64;58.93;102880.78;6210838;28;20304;-66
2021/11/15 10:55:45;;;;;;;32.57;25.67;;;;;;;8.41;59.43;102880.94;6203423;28;20201;-65
2021/11/15 10:59:14;;;;;;;34.23;27.23;;;;;;;8.41;59.22;102885.19;6205197;28;20490;-65
2021/11/15 11:02:36;;;;;;;33.13;27.47;;;;;;;8.47;59.33;102880.25;6200856;28;20264;-68
2021/11/15 11:06:03;;;;;;;34.07;28.30;;;;;;;8.99;58.21;102886.19;6205793;28;20217;-65
2021/11/15 11:09:35;;;;;;;35.13;26.73;;;;;;;8.89;58.68;102882.44;6207695;28;20225;-68
2021/11/15 11:12:58;;;;;;;35.13;27.60;;;;;;;8.88;58.60;102875.50;6206994;28;20230;-67
2021/11/15 11:16:20;;;;;;;32.63;29.10;;;;;;;9.05;58.30;102866.50;6201255;28;20198;-66
2021/11/15 11:20:03;;;;;;;35.57;28.17;;;;;;;8.87;58.63;102869.38;6203128;28;20611;-66
2021/11/15 11:23:36;;;;;;;34.20;25.43;;;;;;;9.02;58.23;102862.91;6210306;28;20236;-66
2021/11/15 11:26:59;;;;;;;32.83;27.00;;;;;;;8.59;58.85;102856.41;6192334;28;20229;-65
2021/11/15 11:30:20;;;;;;;33.50;26.83;;;;;;;8.59;59.77;102859.88;6201494;28;20237;-67
2021/11/15 11:33:41;;;;;;;35.60;28.83;;;;;;;8.74;58.90;102854.25;6197137;28;20261;-66
2021/11/15 11:37:08;;;;;;;31.43;25.17;;;;;;;8.85;58.78;102854.59;6210171;28;20571;-66
2021/11/15 11:40:30;;;;;;;33.60;26.03;;;;;;;9.17;57.81;102852.06;6207290;28;20197;-65
2021/11/15 11:43:53;;;;;;;36.70;29.30;;;;;;;8.85;57.34;102855.47;6208531;28;20631;-66
2021/11/15 11:47:16;;;;;;;30.63;27.27;;;;;;;8.78;57.98;102852.63;6208489;28;20241;-66
2021/11/15 11:50:38;;;;;;;31.63;26.90;;;;;;;8.78;58.16;102848.34;6208412;28;20509;-67
2021/11/15 11:54:12;;;;;;;34.30;26.20;;;;;;;8.58;58.35;102844.22;6209989;28;20229;-66
2021/11/15 11:57:34;;;;;;;32.93;26.83;;;;;;;8.87;57.68;102853.81;6208941;28;20213;-67
2021/11/15 12:00:57;;;;;;;34.70;28.23;;;;;;;9.06;57.77;102844.84;6209538;28;20477;-67
2021/11/15 12:04:20;;;;;;;36.13;28.07;;;;;;;9.03;57.64;102843.88;6211688;28;20631;-66
2021/11/15 12:07:47;;;;;;;32.50;26.70;;;;;;;9.22;57.09;102835.78;6204814;28;20933;-66
2021/11/15 12:11:23;;;;;;;30.37;26.13;;;;;;;9.44;56.44;102820.78;6203057;28;21026;-66
2021/11/15 12:14:45;;;;;;;35.03;27.77;;;;;;;9.01;57.72;102819.56;6205337;28;20229;-66
2021/11/15 12:18:09;;;;;;;34.27;26.97;;;;;;;9.13;57.43;102814.75;6207207;28;20221;-65
2021/11/15 12:21:36;;;;;;;33.40;28.10;;;;;;;8.93;57.46;102810.66;6205178;28;20944;-66
2021/11/15 12:25:08;;;;;;;33.30;27.40;;;;;;;8.83;57.79;102807.78;6210287;28;20224;-65
2021/11/15 12:28:32;;;;;;;32.60;27.03;;;;;;;8.44;58.51;102810.06;6209017;28;20236;-66
2021/11/15 12:31:57;;;;;;;34.17;26.50;;;;;;;8.89;58.00;102804.47;6206525;28;20578;-65
2021/11/15 12:35:18;;;;;;;33.43;27.03;;;;;;;8.85;58.10;102806.09;6206897;28;20891;-67
2021/11/15 12:38:44;;;;;;;36.23;28.10;;;;;;;9.13;57.82;102808.63;6205462;28;20495;-65
2021/11/15 12:42:22;;;;;;;35.27;28.30;;;;;;;9.06;57.73;102807.59;6204259;28;20597;-67
2021/11/15 12:45:49;;;;;;;36.87;27.10;;;;;;;9.24;57.77;102808.09;6209212;28;20228;-67
2021/11/15 12:49:18;;;;;;;33.47;28.90;;;;;;;8.91;58.00;102817.53;6203341;28;20230;-66
2021/11/15 12:52:39;;;;;;;36.43;29.27;;;;;;;9.20;57.98;102821.84;6205791;28;20237;-67
2021/11/15 12:56:00;;;;;;;38.53;27.33;;;;;;;9.18;57.56;102807.06;6206970;28;20246;-67
2021/11/15 12:59:21;;;;;;;35.20;26.53;;;;;;;9.44;57.30;102795.66;6208027;28;20225;-64
2021/11/15 13:02:47;;;;;;;32.57;27.83;;;;;;;9.37;57.39;102793.72;6205246;28;20303;-66
2021/11/15 13:06:11;;;;;;;37.30;28.80;;;;;;;9.13;58.01;102796.53;6192544;28;20610;-65
2021/11/15 13:09:32;;;;;;;35.13;28.60;;;;;;;8.99;57.85;102795.25;6201248;28;20260;-64
2021/11/15 13:12:55;;;;;;;36.03;28.27;;;;;;;9.15;58.16;102789.66;6192148;28;20233;-67
2021/11/15 13:16:16;;;;;;;36.37;28.43;;;;;;;9.14;57.92;102785.28;6198553;28;20202;-66
2021/11/15 13:19:37;;;;;;;34.87;27.00;;;;;;;8.78;58.62;102780.81;6203954;28;20229;-66
2021/11/15 13:32:25;;;;;;;36.73;28.87;;;;;;;9.22;57.72;102765.56;6177639;28;20260;-66
2021/11/15 13:35:46;;;;;;;36.63;28.17;;;;;;;8.30;59.91;102768.03;6208166;28;20215;-66
2021/11/15 13:39:08;;;;;;;38.00;30.50;;;;;;;8.57;60.01;102769.75;6207956;28;20644;-67
2021/11/15 13:42:29;;;;;;;35.70;29.17;;;;;;;9.03;58.87;102768.50;6209138;28;20226;-66
2021/11/15 13:45:50;;;;;;;34.33;28.33;;;;;;;8.72;59.78;102765.00;6209061;28;20946;-66
2021/11/15 13:49:12;;;;;;;37.53;27.80;;;;;;;8.29;60.33;102763.66;6200433;28;20237;-66
2021/11/15 13:52:33;;;;;;;36.07;28.50;;;;;;;8.54;60.50;102765.34;6207344;28;20237;-66
2021/11/15 13:55:55;;;;;;;37.63;28.23;;;;;;;8.50;60.23;102760.91;6205942;28;20194;-66
2021/11/15 13:59:16;;;;;;;36.20;28.00;;;;;;;8.33;61.06;102768.13;6208816;28;20252;-67
2021/11/15 14:02:37;;;;;;;36.07;28.63;;;;;;;8.76;60.10;102761.69;6210039;28;20217;-67
2021/11/15 14:05:59;;;;;;;37.73;30.03;;;;;;;9.00;59.29;102761.50;6208587;28;20213;-66
2021/11/15 14:09:20;;;;;;;35.73;29.03;;;;;;;9.03;59.57;102760.69;6209592;28;20311;-66
2021/11/15 14:12:42;;;;;;;36.53;29.97;;;;;;;8.91;59.92;102756.03;6208274;28;20206;-67
2021/11/15 14:16:06;;;;;;;39.30;32.03;;;;;;;8.55;60.65;102751.53;6211823;28;20197;-67
2021/11/15 14:19:26;;;;;;;39.40;32.07;;;;;;;9.20;65.41;102749.06;6205686;28;20586;-67
2021/11/15 14:22:49;;;;;;;39.40;29.23;;;;;;;9.01;60.86;102751.97;6210421;28;20202;-66
2021/11/15 14:26:10;;;;;;;39.13;28.97;;;;;;;8.96;60.38;102749.28;6206016;28;20866;-66
2021/11/15 14:29:31;;;;;;;38.73;29.20;;;;;;;9.18;60.13;102753.34;6210154;28;20249;-66
2021/11/15 14:32:52;;;;;;;39.37;28.63;;;;;;;9.05;60.32;102752.13;6208801;28;20328;-67
2021/11/15 14:36:13;;;;;;;38.07;30.23;;;;;;;9.05;60.39;102746.94;6210810;28;20205;-66
2021/11/15 14:39:35;;;;;;;39.57;29.40;;;;;;;8.83;60.97;102753.22;6198413;28;20233;-65
2021/11/15 14:42:56;;;;;;;37.03;29.37;;;;;;;9.74;65.40;102760.88;6209795;28;20320;-66
2021/11/15 14:46:17;;;;;;;32.10;23.87;;;;;;;9.46;65.52;102761.91;6208705;28;20206;-65
2021/11/15 14:49:38;;;;;;;37.70;26.13;;;;;;;9.63;63.09;102765.84;6207491;28;20865;-64
2021/11/15 14:53:01;;;;;;;40.23;30.10;;;;;;;9.24;62.10;102766.50;6209348;28;20233;-65
2021/11/15 14:56:23;;;;;;;37.93;29.57;;;;;;;8.65;61.04;102761.38;6208099;28;20194;-64
2021/11/15 14:59:44;;;;;;;37.90;28.67;;;;;;;8.87;61.22;102770.66;6200204;28;20229;-66
2021/11/15 15:03:06;;;;;;;35.10;27.97;;;;;;;8.96;60.46;102777.84;6203423;28;20229;-64
2021/11/15 15:06:26;;;;;;;39.07;29.33;;;;;;;8.91;60.29;102783.75;6202080;28;20218;-64
2021/11/15 15:09:47;;;;;;;38.33;28.47;;;;;;;8.83;60.72;102784.41;6205773;28;20229;-64
2021/11/15 15:13:11;;;;;;;37.40;29.13;;;;;;;9.05;60.65;102777.22;6203659;28;20233;-65
2021/11/15 15:16:32;;;;;;;40.03;30.03;;;;;;;9.05;60.64;102769.44;6204323;28;20218;-65
2021/11/15 15:20:01;;;;;;;35.00;27.73;;;;;;;8.99;60.72;102762.31;6210122;28;20230;-65
2021/11/15 15:23:24;;;;;;;37.57;28.77;;;;;;;8.23;61.89;102773.88;6208292;28;21099;-64
2021/11/15 15:26:45;;;;;;;32.80;27.03;;;;;;;8.42;61.95;102771.03;6201736;28;20217;-64
2021/11/15 15:30:09;;;;;;;37.03;27.97;;;;;;;8.25;62.10;102767.88;6208196;28;20241;-64
2021/11/15 15:33:30;;;;;;;37.53;29.47;;;;;;;8.64;61.83;102758.72;6206535;28;20340;-64
2021/11/15 15:36:52;;;;;;;37.43;27.67;;;;;;;8.80;61.15;102755.75;6204677;28;20190;-64
2021/11/15 15:40:17;;;;;;;34.73;27.73;;;;;;;8.85;61.13;102755.88;6203286;28;20323;-64